createdAt,value
2019-01-10T00:01:06.563Z,9.80
2019-01-10T00:02:49.860Z,12.98
2019-01-10T00:04:33.090Z,4.70
2019-01-10T00:06:16.303Z,7.85
2019-01-10T00:07:59.596Z,9.33
2019-01-10T00:09:42.885Z,8.85
2019-01-10T00:11:26.124Z,10.28
2019-01-10T00:13:09.335Z,9.43
2019-01-10T00:14:52.585Z,8.48
2019-01-10T00:16:35.804Z,9.70
2019-01-10T00:18:19.026Z,8.10
2019-01-10T00:20:02.281Z,11.75
2019-01-10T00:21:45.513Z,14.75
2019-01-10T00:23:28.736Z,11.00
2019-01-10T00:25:13.395Z,14.33
2019-01-10T00:26:56.626Z,10.93
2019-01-10T00:28:39.864Z,7.92
2019-01-10T00:30:23.094Z,7.10
2019-01-10T00:32:06.312Z,8.13
2019-01-10T00:33:49.527Z,12.28
2019-01-10T00:35:32.756Z,12.68
2019-01-10T00:37:15.977Z,9.10
2019-01-10T00:38:59.186Z,8.13
2019-01-10T00:40:42.430Z,13.10
2019-01-10T00:42:25.659Z,9.90
2019-01-10T00:44:08.874Z,11.93
2019-01-10T00:45:52.119Z,12.40
2019-01-10T00:47:35.344Z,7.78
2019-01-10T00:49:18.551Z,7.55
2019-01-10T00:51:01.787Z,10.43
2019-01-10T00:52:44.999Z,9.18
2019-01-10T00:54:28.222Z,10.23
2019-01-10T00:56:11.472Z,10.15
2019-01-10T00:57:54.686Z,12.82
2019-01-10T00:59:37.900Z,7.25
2019-01-10T01:01:21.132Z,8.20
2019-01-10T01:03:04.344Z,8.93
2019-01-10T01:04:47.567Z,7.80
2019-01-10T01:06:30.799Z,12.50
2019-01-10T01:08:14.100Z,11.38
2019-01-10T01:09:57.333Z,13.68
2019-01-10T01:11:40.565Z,12.10
2019-01-10T01:13:23.784Z,13.38
2019-01-10T01:15:09.947Z,8.05
2019-01-10T01:16:53.192Z,10.90
2019-01-10T01:18:36.395Z,10.68
2019-01-10T01:20:21.447Z,6.97
2019-01-10T01:22:04.867Z,12.65
2019-01-10T01:23:48.085Z,7.25
2019-01-10T01:25:31.311Z,8.85
2019-01-10T01:27:14.613Z,10.13
2019-01-10T01:28:57.838Z,12.07
2019-01-10T01:30:41.058Z,8.90
2019-01-10T01:32:24.288Z,6.97
2019-01-10T01:34:07.510Z,10.13
2019-01-10T01:35:50.740Z,11.80
2019-01-10T01:37:33.961Z,12.15
2019-01-10T01:39:17.184Z,10.05
2019-01-10T01:41:00.397Z,17.00
2019-01-10T01:42:43.636Z,9.28
2019-01-10T01:44:26.849Z,9.60
2019-01-10T01:46:10.067Z,16.05
2019-01-10T01:47:53.352Z,10.28
2019-01-10T01:49:36.610Z,11.35
2019-01-10T01:51:19.840Z,8.45
2019-01-10T01:53:03.064Z,9.98
2019-01-10T01:54:46.280Z,11.05
2019-01-10T01:56:29.611Z,10.55
2019-01-10T01:58:12.827Z,10.00
2019-01-10T01:59:56.032Z,9.08
2019-01-10T02:01:39.264Z,9.33
2019-01-10T02:03:22.975Z,11.45
2019-01-10T02:05:07.121Z,8.33
2019-01-10T02:06:50.339Z,8.63
2019-01-10T02:08:33.560Z,9.30
2019-01-10T02:10:18.931Z,12.98
2019-01-10T02:12:02.156Z,8.00
2019-01-10T02:13:45.442Z,8.95
2019-01-10T02:15:29.659Z,14.38
2019-01-10T02:17:14.142Z,11.35
2019-01-10T02:18:58.318Z,11.43
2019-01-10T02:20:41.810Z,9.85
2019-01-10T02:22:25.753Z,10.55
2019-01-10T02:24:10.066Z,8.53
2019-01-10T02:25:54.307Z,10.10
2019-01-10T02:27:38.305Z,11.08
2019-01-10T02:29:21.560Z,12.03
2019-01-10T02:31:04.843Z,12.58
2019-01-10T02:32:48.094Z,11.85
2019-01-10T02:34:31.309Z,6.65
2019-01-10T02:36:14.528Z,13.68
2019-01-10T02:37:57.756Z,10.48
2019-01-10T02:39:40.984Z,9.23
2019-01-10T02:41:24.207Z,8.50
2019-01-10T02:43:07.443Z,12.03
2019-01-10T02:44:50.652Z,9.60
2019-01-10T02:46:33.915Z,8.95
2019-01-10T02:48:19.600Z,10.55
2019-01-10T02:50:02.127Z,8.03
2019-01-10T02:51:45.359Z,12.78
2019-01-10T02:53:28.594Z,12.88
2019-01-10T02:55:11.916Z,11.07
2019-01-10T02:56:55.134Z,8.33
2019-01-10T02:58:38.360Z,9.95
2019-01-10T03:00:24.730Z,9.33
2019-01-10T03:02:08.024Z,7.92
2019-01-10T03:03:51.267Z,9.75
2019-01-10T03:05:34.476Z,8.03
2019-01-10T03:07:17.706Z,8.60
2019-01-10T03:09:00.946Z,9.30
2019-01-10T03:10:44.161Z,8.53
2019-01-10T03:12:27.373Z,9.70
2019-01-10T03:14:10.599Z,11.90
2019-01-10T03:15:53.817Z,8.05
2019-01-10T03:17:37.042Z,9.60
2019-01-10T03:19:20.273Z,8.13
2019-01-10T03:21:03.498Z,12.53
2019-01-10T03:22:46.717Z,9.10
2019-01-10T03:24:29.953Z,11.20
2019-01-10T03:26:13.271Z,15.38
2019-01-10T03:27:56.565Z,13.80
2019-01-10T03:29:39.777Z,10.72
2019-01-10T03:31:23.001Z,11.85
2019-01-10T03:33:06.240Z,16.15
2019-01-10T03:34:49.453Z,14.38
2019-01-10T03:36:32.813Z,12.80
2019-01-10T03:38:16.052Z,14.63
2019-01-10T03:39:59.269Z,12.68
2019-01-10T03:41:42.487Z,14.03
2019-01-10T03:43:25.737Z,15.68
2019-01-10T03:45:11.602Z,14.95
2019-01-10T03:46:54.833Z,13.08
2019-01-10T03:48:38.067Z,13.30
2019-01-10T03:50:21.459Z,14.80
2019-01-10T03:52:04.700Z,17.80
2019-01-10T03:53:47.949Z,17.10
2019-01-10T03:55:31.163Z,13.10
2019-01-10T03:57:14.379Z,16.67
2019-01-10T03:58:57.621Z,14.83
2019-01-10T04:00:40.847Z,19.70
2019-01-10T04:02:24.055Z,16.52
2019-01-10T04:04:07.275Z,14.40
2019-01-10T04:05:50.558Z,18.37
2019-01-10T04:07:33.803Z,14.63
2019-01-10T04:09:17.045Z,18.92
2019-01-10T04:11:00.269Z,18.62
2019-01-10T04:12:43.499Z,13.85
2019-01-10T04:14:26.724Z,13.72
2019-01-10T04:16:10.028Z,18.57
2019-01-10T04:17:53.233Z,17.27
2019-01-10T04:19:36.519Z,22.98
2019-01-10T04:21:19.739Z,17.62
2019-01-10T04:23:02.954Z,13.20
2019-01-10T04:24:46.198Z,11.65
2019-01-10T04:26:29.419Z,13.78
2019-01-10T04:28:12.652Z,16.37
2019-01-10T04:29:55.968Z,13.90
2019-01-10T04:31:40.475Z,18.17
2019-01-10T04:33:23.691Z,12.33
2019-01-10T04:35:07.030Z,15.15
2019-01-10T04:36:50.263Z,16.40
2019-01-10T04:38:33.485Z,15.10
2019-01-10T04:40:18.253Z,13.47
2019-01-10T04:42:01.471Z,20.30
2019-01-10T04:43:44.692Z,14.20
2019-01-10T04:45:27.937Z,16.85
2019-01-10T04:47:11.161Z,16.62
2019-01-10T04:48:54.391Z,12.47
2019-01-10T04:50:37.634Z,14.83
2019-01-10T04:52:20.863Z,14.87
2019-01-10T04:54:04.090Z,14.85
2019-01-10T04:55:47.317Z,13.10
2019-01-10T04:57:30.545Z,13.83
2019-01-10T04:59:13.766Z,14.60
2019-01-10T05:00:57.011Z,18.17
2019-01-10T05:02:40.248Z,15.95
2019-01-10T05:04:23.465Z,14.95
2019-01-10T05:06:06.692Z,17.70
2019-01-10T05:07:49.935Z,18.62
2019-01-10T05:09:33.158Z,14.23
2019-01-10T05:11:16.395Z,16.07
2019-01-10T05:12:59.605Z,14.68
2019-01-10T05:14:42.823Z,16.40
2019-01-10T05:16:26.057Z,15.35
2019-01-10T05:18:09.275Z,20.68
2019-01-10T05:19:52.502Z,14.13
2019-01-10T05:21:35.732Z,13.15
2019-01-10T05:23:18.949Z,13.53
2019-01-10T05:25:02.161Z,14.65
2019-01-10T05:26:45.396Z,19.87
2019-01-10T05:28:28.620Z,15.23
2019-01-10T05:30:17.417Z,12.53
2019-01-10T05:32:02.551Z,12.82
2019-01-10T05:33:45.604Z,15.13
2019-01-10T05:35:28.884Z,15.70
2019-01-10T05:37:12.134Z,18.48
2019-01-10T05:38:55.357Z,13.98
2019-01-10T05:40:38.592Z,9.63
2019-01-10T05:42:21.811Z,20.68
2019-01-10T05:44:05.024Z,22.50
2019-01-10T05:45:48.270Z,11.87
2019-01-10T05:47:31.480Z,13.35
2019-01-10T05:49:14.712Z,14.65
2019-01-10T05:50:57.948Z,15.70
2019-01-10T05:52:41.165Z,12.82
2019-01-10T05:54:24.383Z,14.95
2019-01-10T05:56:15.253Z,14.07
2019-01-10T05:57:52.579Z,14.30
2019-01-10T05:59:35.771Z,15.20
2019-01-10T06:01:19.020Z,13.45
2019-01-10T06:03:02.238Z,11.65
2019-01-10T06:04:45.460Z,16.73
2019-01-10T06:06:28.771Z,15.05
2019-01-10T06:08:11.987Z,12.93
2019-01-10T06:09:55.208Z,10.88
2019-01-10T06:11:38.454Z,16.87
2019-01-10T06:13:21.842Z,16.95
2019-01-10T06:15:08.779Z,15.90
2019-01-10T06:16:52.016Z,19.05
2019-01-10T06:18:35.241Z,14.53
2019-01-10T06:20:20.513Z,14.90
2019-01-10T06:22:03.740Z,15.53
2019-01-10T06:23:47.019Z,16.45
2019-01-10T06:25:30.253Z,17.23
2019-01-10T06:27:13.548Z,16.95
2019-01-10T06:28:56.765Z,19.98
2019-01-10T06:30:39.983Z,17.13
2019-01-10T06:32:23.219Z,13.08
2019-01-10T06:34:06.621Z,18.98
2019-01-10T06:35:49.941Z,13.27
2019-01-10T06:37:33.176Z,16.17
2019-01-10T06:39:18.513Z,23.25
2019-01-10T06:41:01.325Z,18.60
2019-01-10T06:42:44.546Z,22.15
2019-01-10T06:44:27.758Z,16.27
2019-01-10T06:46:10.979Z,18.40
2019-01-10T06:47:54.204Z,18.10
2019-01-10T06:49:37.418Z,20.17
2019-01-10T06:51:20.635Z,13.65
2019-01-10T06:53:03.876Z,16.42
2019-01-10T06:54:56.297Z,14.00
2019-01-10T06:56:32.051Z,11.25
2019-01-10T06:58:15.308Z,14.35
2019-01-10T06:59:58.523Z,15.03
2019-01-10T07:01:41.751Z,15.70
2019-01-10T07:03:24.996Z,18.80
2019-01-10T07:05:08.216Z,17.45
2019-01-10T07:06:51.476Z,13.70
2019-01-10T07:08:34.698Z,19.32
2019-01-10T07:10:23.411Z,11.90
2019-01-10T07:12:07.856Z,13.62
2019-01-10T07:13:51.181Z,18.27
2019-01-10T07:15:34.466Z,13.48
2019-01-10T07:17:17.699Z,14.70
2019-01-10T07:19:00.912Z,16.23
2019-01-10T07:20:44.146Z,21.30
2019-01-10T07:22:27.366Z,11.57
2019-01-10T07:24:10.825Z,14.63
2019-01-10T07:25:56.972Z,14.58
2019-01-10T07:27:40.199Z,13.78
2019-01-10T07:29:23.430Z,14.53
2019-01-10T07:31:10.387Z,13.65
2019-01-10T07:32:53.685Z,18.77
2019-01-10T07:34:36.892Z,11.33
2019-01-10T07:36:20.121Z,15.90
2019-01-10T07:38:03.351Z,11.22
2019-01-10T07:39:46.574Z,13.60
2019-01-10T07:41:29.801Z,13.13
2019-01-10T07:43:13.082Z,12.40
2019-01-10T07:45:02.647Z,14.47
2019-01-10T07:46:44.526Z,15.23
2019-01-10T07:48:27.765Z,16.00
2019-01-10T07:50:10.996Z,12.97
2019-01-10T07:51:54.304Z,13.32
2019-01-10T07:53:37.529Z,13.25
2019-01-10T07:55:20.753Z,16.40
2019-01-10T07:57:03.963Z,22.07
2019-01-10T07:58:47.199Z,13.55
2019-01-10T08:00:30.433Z,20.43
2019-01-10T08:02:13.644Z,21.73
2019-01-10T08:03:56.875Z,16.70
2019-01-10T08:05:40.105Z,20.37
2019-01-10T08:07:23.349Z,21.07
2019-01-10T08:09:08.432Z,20.70
2019-01-10T08:10:51.724Z,22.57
2019-01-10T08:12:34.934Z,20.95
2019-01-10T08:14:18.159Z,22.13
2019-01-10T08:16:01.376Z,14.95
2019-01-10T08:17:44.596Z,21.40
2019-01-10T08:19:27.832Z,22.73
2019-01-10T08:21:11.411Z,17.27
2019-01-10T08:22:54.628Z,21.57
2019-01-10T08:24:37.855Z,20.15
2019-01-10T08:26:21.087Z,19.73
2019-01-10T08:28:04.313Z,17.95
2019-01-10T08:29:47.528Z,20.60
2019-01-10T08:31:30.751Z,18.23
2019-01-10T08:33:13.969Z,32.15
2019-01-10T08:34:57.212Z,33.15
2019-01-10T08:36:40.435Z,22.45
2019-01-10T08:38:23.648Z,23.57
2019-01-10T08:40:08.626Z,21.82
2019-01-10T08:41:51.857Z,18.87
2019-01-10T08:43:35.084Z,20.95
2019-01-10T08:45:21.739Z,11.90
2019-01-10T08:47:03.368Z,17.17
2019-01-10T08:48:46.587Z,16.17
2019-01-10T08:50:29.820Z,18.57
2019-01-10T08:52:13.063Z,18.87
2019-01-10T08:53:56.305Z,18.02
2019-01-10T08:55:39.534Z,22.00
2019-01-10T08:57:23.143Z,19.05
2019-01-10T08:59:06.485Z,20.43
2019-01-10T09:00:49.723Z,18.12
2019-01-10T09:02:32.934Z,16.62
2019-01-10T09:04:16.191Z,19.52
2019-01-10T09:06:07.866Z,23.32
2019-01-10T09:07:44.360Z,20.15
2019-01-10T09:09:27.610Z,24.57
2019-01-10T09:11:11.342Z,21.70
2019-01-10T09:12:54.565Z,19.57
2019-01-10T09:14:37.814Z,23.95
2019-01-10T09:16:21.031Z,17.92
2019-01-10T09:18:04.517Z,18.00
2019-01-10T09:19:47.759Z,23.42
2019-01-10T09:21:30.972Z,12.15
2019-01-10T09:23:14.191Z,17.23
2019-01-10T09:24:57.427Z,12.20
2019-01-10T09:26:40.756Z,12.78
2019-01-10T09:28:23.991Z,19.80
2019-01-10T09:30:15.542Z,10.28
2019-01-10T09:31:58.793Z,18.10
2019-01-10T09:33:41.999Z,13.22
2019-01-10T09:35:25.232Z,16.52
2019-01-10T09:37:08.455Z,11.55
2019-01-10T09:38:51.690Z,13.15
2019-01-10T09:40:34.933Z,17.35
2019-01-10T09:42:18.147Z,16.32
2019-01-10T09:44:01.367Z,15.63
2019-01-10T09:45:44.600Z,17.70
2019-01-10T09:47:27.823Z,13.78
2019-01-10T09:49:14.990Z,12.05
2019-01-10T09:50:58.043Z,15.08
2019-01-10T09:52:41.253Z,18.02
2019-01-10T09:54:24.491Z,17.05
2019-01-10T09:56:07.728Z,13.35
2019-01-10T09:57:50.958Z,19.42
2019-01-10T09:59:34.164Z,13.60
2019-01-10T10:01:17.412Z,13.53
2019-01-10T10:03:00.648Z,13.48
2019-01-10T10:04:43.873Z,12.75
2019-01-10T10:06:27.110Z,12.78
2019-01-10T10:08:10.341Z,16.90
2019-01-10T10:09:53.582Z,15.83
2019-01-10T10:11:36.891Z,19.02
2019-01-10T10:13:20.111Z,16.10
2019-01-10T10:15:03.513Z,13.15
2019-01-10T10:16:46.747Z,20.92
2019-01-10T10:18:29.968Z,27.65
2019-01-10T10:20:15.884Z,25.10
2019-01-10T10:21:59.972Z,24.95
2019-01-10T10:23:43.198Z,29.80
2019-01-10T10:25:26.425Z,18.82
2019-01-10T10:27:09.671Z,23.32
2019-01-10T10:28:52.886Z,18.42
2019-01-10T10:30:36.104Z,30.92
2019-01-10T10:32:19.339Z,18.75
2019-01-10T10:34:02.547Z,22.02
2019-01-10T10:35:45.770Z,17.02
2019-01-10T10:37:29.004Z,19.37
2019-01-10T10:39:12.231Z,16.55
2019-01-10T10:40:55.447Z,18.82
2019-01-10T10:42:38.684Z,22.13
2019-01-10T10:44:21.901Z,14.53
2019-01-10T10:46:05.136Z,13.93
2019-01-10T10:47:48.348Z,15.40
2019-01-10T10:49:31.610Z,13.40
2019-01-10T10:51:14.834Z,15.72
2019-01-10T10:52:58.059Z,20.43
2019-01-10T10:54:41.284Z,19.45
2019-01-10T10:56:24.508Z,18.00
2019-01-10T10:58:07.729Z,17.32
2019-01-10T10:59:50.955Z,17.73
2019-01-10T11:01:34.196Z,19.40
2019-01-10T11:03:17.419Z,16.90
2019-01-10T11:05:00.627Z,16.73
2019-01-10T11:06:43.886Z,17.07
2019-01-10T11:08:27.111Z,15.65
2019-01-10T11:10:13.612Z,12.93
2019-01-10T11:11:56.849Z,26.60
2019-01-10T11:13:40.094Z,13.60
2019-01-10T11:15:23.326Z,15.63
2019-01-10T11:17:06.646Z,17.32
2019-01-10T11:18:49.852Z,21.17
2019-01-10T11:20:33.085Z,14.68
2019-01-10T11:22:16.317Z,18.62
2019-01-10T11:23:59.538Z,10.23
2019-01-10T11:25:42.768Z,15.28
2019-01-10T11:27:26.016Z,18.10
2019-01-10T11:29:09.657Z,14.00
2019-01-10T11:30:52.902Z,15.70
2019-01-10T11:32:36.124Z,14.73
2019-01-10T11:34:19.356Z,17.67
2019-01-10T11:36:02.592Z,14.70
2019-01-10T11:37:45.823Z,13.78
2019-01-10T11:39:29.154Z,13.10
2019-01-10T11:41:12.370Z,12.47
2019-01-10T11:42:55.611Z,11.45
2019-01-10T11:44:38.822Z,13.32
2019-01-10T11:46:22.056Z,11.97
2019-01-10T11:48:05.355Z,13.13
2019-01-10T11:49:48.573Z,12.85
2019-01-10T11:51:31.836Z,14.03
2019-01-10T11:53:15.137Z,15.80
2019-01-10T11:54:58.352Z,14.25
2019-01-10T11:56:41.576Z,18.65
2019-01-10T11:58:24.895Z,13.48
2019-01-10T12:00:11.356Z,17.20
2019-01-10T12:01:54.571Z,10.70
2019-01-10T12:03:37.810Z,14.85
2019-01-10T12:05:21.033Z,13.60
2019-01-10T12:07:04.268Z,20.37
2019-01-10T12:08:47.505Z,12.68
2019-01-10T12:10:30.747Z,19.17
2019-01-10T12:12:13.963Z,13.90
2019-01-10T12:13:57.194Z,14.75
2019-01-10T12:15:40.448Z,15.80
2019-01-10T12:17:23.669Z,14.68
2019-01-10T12:19:06.903Z,13.30
2019-01-10T12:20:50.122Z,12.50
2019-01-10T12:22:33.331Z,11.08
2019-01-10T12:24:16.567Z,13.40
2019-01-10T12:25:59.786Z,12.35
2019-01-10T12:27:43.023Z,17.30
2019-01-10T12:29:26.280Z,13.72
2019-01-10T12:31:09.500Z,14.75
2019-01-10T12:32:52.768Z,20.90
2019-01-10T12:34:36.020Z,18.37
2019-01-10T12:36:19.241Z,15.43
2019-01-10T12:38:02.954Z,14.07
2019-01-10T12:39:46.182Z,14.30
2019-01-10T12:41:29.421Z,9.50
2019-01-10T12:43:12.672Z,15.48
2019-01-10T12:44:55.888Z,13.28
2019-01-10T12:46:39.135Z,16.30
2019-01-10T12:48:22.429Z,12.37
2019-01-10T12:50:08.907Z,12.95
2019-01-10T12:51:52.144Z,11.65
2019-01-10T12:53:35.366Z,15.43
2019-01-10T12:55:18.590Z,12.15
2019-01-10T12:57:01.811Z,12.20
2019-01-10T12:58:45.047Z,18.90
2019-01-10T13:00:28.294Z,15.50
2019-01-10T13:02:11.506Z,18.37
2019-01-10T13:03:54.734Z,12.50
2019-01-10T13:05:37.964Z,15.68
2019-01-10T13:07:21.176Z,17.17
2019-01-10T13:09:06.651Z,14.87
2019-01-10T13:10:49.884Z,12.30
2019-01-10T13:12:33.124Z,10.13
2019-01-10T13:14:16.352Z,16.85
2019-01-10T13:15:59.582Z,20.40
2019-01-10T13:17:42.822Z,13.32
2019-01-10T13:19:26.040Z,13.48
2019-01-10T13:21:09.773Z,14.23
2019-01-10T13:22:53.076Z,10.45
2019-01-10T13:24:36.318Z,11.43
2019-01-10T13:26:19.603Z,13.95
2019-01-10T13:28:02.862Z,19.37
2019-01-10T13:29:46.086Z,18.00
2019-01-10T13:31:29.304Z,20.95
2019-01-10T13:33:12.532Z,19.15
2019-01-10T13:34:55.759Z,14.10
2019-01-10T13:36:38.984Z,14.87
2019-01-10T13:38:22.217Z,21.70
2019-01-10T13:40:07.964Z,18.30
2019-01-10T13:41:51.193Z,14.73
2019-01-10T13:43:34.408Z,15.30
2019-01-10T13:45:18.387Z,18.90
2019-01-10T13:47:04.451Z,14.35
2019-01-10T13:48:51.565Z,15.58
2019-01-10T13:50:33.129Z,16.64
2019-01-10T13:52:16.343Z,16.45
2019-01-10T13:53:59.574Z,18.17
2019-01-10T13:55:42.799Z,17.27
2019-01-10T13:57:28.168Z,14.75
2019-01-10T14:00:54.495Z,14.55
2019-01-10T14:02:37.791Z,18.77
2019-01-10T14:04:21.004Z,10.90
2019-01-10T14:06:04.231Z,19.20
2019-01-10T14:07:47.464Z,13.22
2019-01-10T14:09:30.683Z,14.35
2019-01-10T14:11:13.924Z,18.42
2019-01-10T14:12:57.157Z,14.40
2019-01-10T14:14:40.375Z,10.95
2019-01-10T14:16:23.607Z,15.50
2019-01-10T14:18:06.827Z,12.03
2019-01-10T14:19:50.075Z,13.65
2019-01-10T14:21:33.301Z,16.17
2019-01-10T14:23:16.533Z,13.70
2019-01-10T14:24:59.770Z,14.75
2019-01-10T14:26:42.979Z,16.42
2019-01-10T14:28:26.277Z,15.35
2019-01-10T14:30:18.654Z,16.75
2019-01-10T14:32:01.875Z,18.30
2019-01-10T14:33:45.171Z,19.12
2019-01-10T14:35:28.480Z,18.42
2019-01-10T14:37:11.704Z,17.02
2019-01-10T14:38:55.195Z,14.93
2019-01-10T14:40:38.436Z,15.23
2019-01-10T14:42:21.652Z,22.20
2019-01-10T14:44:04.870Z,18.42
2019-01-10T14:45:48.107Z,18.47
2019-01-10T14:47:31.323Z,17.82
2019-01-10T14:49:14.548Z,21.52
2019-01-10T14:50:57.788Z,15.83
2019-01-10T14:52:41.013Z,13.88
2019-01-10T14:54:24.244Z,14.63
2019-01-10T14:56:07.487Z,16.85
2019-01-10T14:57:50.715Z,14.75
2019-01-10T14:59:33.924Z,16.30
2019-01-10T15:01:17.159Z,16.35
2019-01-10T15:03:00.378Z,22.02
2019-01-10T15:04:44.179Z,20.80
2019-01-10T15:06:27.432Z,25.50
2019-01-10T15:08:10.656Z,20.72
2019-01-10T15:09:53.904Z,20.27
2019-01-10T15:11:37.143Z,17.60
2019-01-10T15:13:20.375Z,21.55
2019-01-10T15:15:05.340Z,21.20
2019-01-10T15:16:48.572Z,16.57
2019-01-10T15:18:32.110Z,22.45
2019-01-10T15:20:18.583Z,18.05
2019-01-10T15:22:01.830Z,26.00
2019-01-10T15:23:45.054Z,19.02
2019-01-10T15:25:28.274Z,17.92
2019-01-10T15:27:11.528Z,17.25
2019-01-10T15:28:54.746Z,19.85
2019-01-10T15:30:37.978Z,23.60
2019-01-10T15:32:21.213Z,22.00
2019-01-10T15:34:04.439Z,21.68
2019-01-10T15:35:47.671Z,22.25
2019-01-10T15:37:30.911Z,22.93
2019-01-10T15:39:14.202Z,17.65
2019-01-10T15:40:57.458Z,22.42
2019-01-10T15:42:40.696Z,19.20
2019-01-10T15:44:29.068Z,22.05
2019-01-10T15:46:08.890Z,23.20
2019-01-10T15:47:52.167Z,22.32
2019-01-10T15:49:35.391Z,17.60
2019-01-10T15:51:18.823Z,16.07
2019-01-10T15:53:02.099Z,18.50
2019-01-10T15:54:45.339Z,26.27
2019-01-10T15:56:28.564Z,20.02
2019-01-10T15:58:11.807Z,26.25
2019-01-10T15:59:55.015Z,20.90
2019-01-10T16:01:38.237Z,21.45
2019-01-10T16:03:21.569Z,16.93
2019-01-10T16:05:05.715Z,17.90
2019-01-10T16:06:49.029Z,19.92
2019-01-10T16:08:32.288Z,16.62
2019-01-10T16:10:17.141Z,16.55
2019-01-10T16:12:00.373Z,23.50
2019-01-10T16:13:43.585Z,20.10
2019-01-10T16:15:26.825Z,17.48
2019-01-10T16:17:10.066Z,20.70
2019-01-10T16:18:53.355Z,14.35
2019-01-10T16:20:36.571Z,17.05
2019-01-10T16:22:19.807Z,13.68
2019-01-10T16:24:03.039Z,16.50
2019-01-10T16:25:46.362Z,19.43
2019-01-10T16:27:29.606Z,19.20
2019-01-10T16:29:12.832Z,22.35
2019-01-10T16:30:56.079Z,21.68
2019-01-10T16:32:39.314Z,26.45
2019-01-10T16:34:22.544Z,24.43
2019-01-10T16:36:05.763Z,30.30
2019-01-10T16:37:49.005Z,28.30
2019-01-10T16:39:32.226Z,26.90
2019-01-10T16:41:15.457Z,22.77
2019-01-10T16:42:58.703Z,22.55
2019-01-10T16:44:41.909Z,23.55
2019-01-10T16:46:25.133Z,20.00
2019-01-10T16:48:08.374Z,20.60
2019-01-10T16:49:51.598Z,25.05
2019-01-10T16:51:34.827Z,17.75
2019-01-10T16:53:18.065Z,24.35
2019-01-10T16:55:01.356Z,25.45
2019-01-10T16:56:44.580Z,16.52
2019-01-10T16:58:27.836Z,15.70
2019-01-10T17:00:23.007Z,16.77
2019-01-10T17:02:06.240Z,14.70
2019-01-10T17:03:49.469Z,24.80
2019-01-10T17:05:33.119Z,17.57
2019-01-10T17:07:17.160Z,20.27
2019-01-10T17:09:00.396Z,16.82
2019-01-10T17:10:43.626Z,19.33
2019-01-10T17:12:26.848Z,14.15
2019-01-10T17:14:10.094Z,18.45
2019-01-10T17:15:53.306Z,19.02
2019-01-10T17:17:37.826Z,17.20
2019-01-10T17:19:21.156Z,20.68
2019-01-10T17:21:04.610Z,19.07
2019-01-10T17:22:48.502Z,20.72
2019-01-10T17:24:32.054Z,18.15
2019-01-10T17:26:15.274Z,17.23
2019-01-10T17:27:58.500Z,28.07
2019-01-10T17:29:41.728Z,18.48
2019-01-10T17:31:24.957Z,21.35
2019-01-10T17:33:08.183Z,18.98
2019-01-10T17:34:51.441Z,22.85
2019-01-10T17:36:34.679Z,16.95
2019-01-10T17:38:18.167Z,22.15
2019-01-10T17:40:01.826Z,24.25
2019-01-10T17:41:45.073Z,22.62
2019-01-10T17:43:28.306Z,32.90
2019-01-10T17:45:15.194Z,23.05
2019-01-10T17:46:58.533Z,14.95
2019-01-10T17:48:41.775Z,16.70
2019-01-10T17:50:25.010Z,12.40
2019-01-10T17:52:08.235Z,17.37
2019-01-10T17:53:51.476Z,14.70
2019-01-10T17:55:34.706Z,18.25
2019-01-10T17:57:18.155Z,15.88
2019-01-10T17:59:01.617Z,19.62
2019-01-10T18:00:45.266Z,21.40
2019-01-10T18:02:28.525Z,12.68
2019-01-10T18:04:11.756Z,14.95
2019-01-10T18:05:55.051Z,18.35
2019-01-10T18:07:38.372Z,24.63
2019-01-10T18:09:21.669Z,19.92
2019-01-10T18:11:04.960Z,15.63
2019-01-10T18:12:48.264Z,28.25
2019-01-10T18:14:31.545Z,16.00
2019-01-10T18:16:14.989Z,19.10
2019-01-10T18:17:58.266Z,24.82
2019-01-10T18:19:41.596Z,16.48
2019-01-10T18:21:24.804Z,18.45
2019-01-10T18:23:08.018Z,20.75
2019-01-10T18:24:51.254Z,22.75
2019-01-10T18:26:34.499Z,18.62
2019-01-10T18:28:17.731Z,20.60
2019-01-10T18:30:00.974Z,25.00
2019-01-10T18:31:44.183Z,15.95
2019-01-10T18:33:27.402Z,21.93
2019-01-10T18:35:14.979Z,17.32
2019-01-10T18:36:58.250Z,19.35
2019-01-10T18:38:41.480Z,17.07
2019-01-10T18:40:27.270Z,16.20
2019-01-10T18:42:10.614Z,17.20
2019-01-10T18:43:53.843Z,18.48
2019-01-10T18:45:37.076Z,16.75
2019-01-10T18:47:20.336Z,13.20
2019-01-10T18:49:03.548Z,21.40
2019-01-10T18:50:47.188Z,16.40
2019-01-10T18:52:30.587Z,22.82
2019-01-10T18:54:13.812Z,23.07
2019-01-10T18:55:57.078Z,19.62
2019-01-10T18:57:40.362Z,15.88
2019-01-10T18:59:23.952Z,17.48
2019-01-10T19:01:07.403Z,18.15
2019-01-10T19:02:51.114Z,19.65
2019-01-10T19:04:34.596Z,21.35
2019-01-10T19:06:17.895Z,13.38
2019-01-10T19:08:01.702Z,18.42
2019-01-10T19:09:45.019Z,15.90
2019-01-10T19:11:28.705Z,26.00
2019-01-10T19:13:13.399Z,21.52
2019-01-10T19:14:56.631Z,18.67
2019-01-10T19:16:39.861Z,23.18
2019-01-10T19:18:23.076Z,23.22
2019-01-10T19:20:09.566Z,18.52
2019-01-10T19:21:52.793Z,24.52
2019-01-10T19:23:36.026Z,20.23
2019-01-10T19:25:19.259Z,21.10
2019-01-10T19:27:02.498Z,18.23
2019-01-10T19:28:46.028Z,15.78
2019-01-10T19:30:30.102Z,22.05
2019-01-10T19:32:13.688Z,22.65
2019-01-10T19:33:56.951Z,20.62
2019-01-10T19:35:40.188Z,15.93
2019-01-10T19:37:23.416Z,17.05
2019-01-10T19:39:07.783Z,23.75
2019-01-10T19:40:51.085Z,18.03
2019-01-10T19:42:34.310Z,16.27
2019-01-10T19:44:17.560Z,22.13
2019-01-10T19:46:01.220Z,20.77
2019-01-10T19:47:44.547Z,14.75
2019-01-10T19:49:27.900Z,18.85
2019-01-10T19:51:11.149Z,26.40
2019-01-10T19:52:54.960Z,22.45
2019-01-10T19:54:38.419Z,21.15
2019-01-10T19:56:21.769Z,16.52
2019-01-10T19:58:05.053Z,15.65
2019-01-10T19:59:48.445Z,21.77
2019-01-10T20:01:31.755Z,16.67
2019-01-10T20:03:14.968Z,22.30
